createdAt,value
2019-05-22T00:00:32.672Z,99.90
2019-05-22T00:03:03.508Z,99.90
2019-05-22T00:05:34.176Z,99.90
2019-05-22T00:08:05.392Z,99.90
2019-05-22T00:10:38.632Z,99.90
2019-05-22T00:13:10.691Z,99.90
2019-05-22T00:15:41.055Z,99.90
2019-05-22T00:18:12.623Z,99.90
2019-05-22T00:20:44.387Z,99.90
2019-05-22T00:23:15.418Z,99.90
2019-05-22T00:25:47.602Z,99.90
2019-05-22T00:28:17.915Z,99.90
2019-05-22T00:30:50.037Z,99.90
2019-05-22T00:33:19.875Z,99.90
2019-05-22T00:35:51.386Z,99.90
2019-05-22T00:38:22.922Z,99.90
2019-05-22T00:40:58.989Z,99.90
2019-05-22T00:43:31.659Z,99.90
2019-05-22T00:46:05.238Z,99.90
2019-05-22T00:48:36.252Z,99.90
2019-05-22T00:51:29.863Z,99.90
2019-05-22T00:54:29.858Z,99.90
2019-05-22T00:57:17.666Z,99.90
2019-05-22T00:59:49.182Z,99.90
2019-05-22T01:02:21.802Z,99.90
2019-05-22T01:04:54.280Z,99.90
2019-05-22T01:07:30.407Z,99.90
2019-05-22T01:10:02.437Z,99.90
2019-05-22T01:12:37.245Z,99.90
2019-05-22T01:15:08.618Z,99.90
2019-05-22T01:17:40.966Z,99.90
2019-05-22T01:20:16.633Z,99.90
2019-05-22T01:22:48.807Z,99.90
2019-05-22T01:25:22.098Z,99.90
2019-05-22T01:27:52.750Z,99.90
2019-05-22T01:30:38.548Z,99.90
2019-05-22T01:33:16.800Z,99.90
2019-05-22T01:35:55.267Z,99.90
2019-05-22T01:38:25.966Z,99.90
2019-05-22T01:40:59.117Z,99.90
2019-05-22T01:43:29.925Z,99.90
2019-05-22T01:46:01.441Z,99.90
2019-05-22T01:48:36.875Z,99.90
2019-05-22T01:51:07.549Z,99.90
2019-05-22T01:53:41.145Z,99.90
2019-05-22T01:56:12.785Z,99.90
2019-05-22T01:58:43.794Z,99.90
2019-05-22T02:01:16.822Z,99.90
2019-05-22T02:03:47.883Z,99.90
2019-05-22T02:06:19.942Z,99.90
2019-05-22T02:08:53.438Z,99.90
2019-05-22T02:11:25.770Z,99.90
2019-05-22T02:14:03.989Z,99.90
2019-05-22T02:16:34.493Z,99.90
2019-05-22T02:19:05.496Z,99.90
2019-05-22T02:21:35.766Z,99.90
2019-05-22T02:24:06.470Z,99.90
2019-05-22T02:26:36.974Z,99.90
2019-05-22T02:29:08.879Z,99.90
2019-05-22T02:31:40.703Z,99.90
2019-05-22T02:34:10.852Z,99.90
2019-05-22T02:36:42.433Z,99.90
2019-05-22T02:39:27.151Z,99.90
2019-05-22T02:42:00.577Z,99.90
2019-05-22T02:44:31.475Z,99.90
2019-05-22T02:47:18.133Z,99.90
2019-05-22T02:49:33.903Z,99.90
2019-05-22T02:52:05.521Z,99.90
2019-05-22T02:54:36.151Z,99.90
2019-05-22T02:57:07.629Z,99.90
2019-05-22T02:59:37.584Z,99.90
2019-05-22T03:02:07.761Z,99.90
2019-05-22T03:05:09.925Z,99.90
2019-05-22T03:07:42.072Z,99.90
2019-05-22T03:10:18.257Z,99.90
2019-05-22T03:12:49.711Z,99.90
2019-05-22T03:15:22.033Z,99.90
2019-05-22T03:17:55.279Z,99.90
2019-05-22T03:20:26.594Z,99.90
2019-05-22T03:23:12.298Z,99.90
2019-05-22T03:25:43.767Z,99.90
2019-05-22T03:28:14.998Z,99.90
2019-05-22T03:30:45.805Z,99.90
2019-05-22T03:33:16.320Z,99.90
2019-05-22T03:35:48.583Z,99.90
2019-05-22T03:38:19.205Z,99.90
2019-05-22T03:40:52.442Z,99.90
2019-05-22T03:43:24.633Z,99.90
2019-05-22T03:45:56.383Z,99.90
2019-05-22T03:48:28.432Z,99.90
2019-05-22T03:51:08.732Z,99.90
2019-05-22T03:53:38.487Z,99.90
2019-05-22T03:56:09.191Z,99.90
2019-05-22T03:58:38.993Z,99.90
2019-05-22T04:01:09.093Z,99.90
2019-05-22T04:03:39.114Z,99.90
2019-05-22T04:06:10.043Z,99.90
2019-05-22T04:08:39.787Z,99.90
2019-05-22T04:11:13.250Z,99.90
2019-05-22T04:13:43.119Z,99.90
2019-05-22T04:16:16.171Z,99.90
2019-05-22T04:18:46.656Z,99.90
2019-05-22T04:21:16.751Z,99.90
2019-05-22T04:23:46.415Z,99.90
2019-05-22T04:26:16.763Z,99.90
2019-05-22T04:28:53.002Z,99.90
2019-05-22T04:31:36.542Z,99.90
2019-05-22T04:34:06.435Z,99.90
2019-05-22T04:36:37.127Z,99.90
2019-05-22T04:39:11.889Z,99.90
2019-05-22T04:41:43.593Z,99.90
2019-05-22T04:44:13.411Z,99.90
2019-05-22T04:46:44.587Z,99.90
2019-05-22T04:49:15.478Z,99.90
2019-05-22T04:51:45.347Z,99.90
2019-05-22T04:54:15.500Z,99.90
2019-05-22T04:56:45.290Z,99.90
2019-05-22T04:59:15.776Z,99.90
2019-05-22T05:01:46.246Z,99.90
2019-05-22T05:04:16.020Z,99.90
2019-05-22T05:06:46.029Z,99.90
2019-05-22T05:09:16.291Z,99.90
2019-05-22T05:11:46.882Z,99.90
2019-05-22T05:14:17.046Z,99.90
2019-05-22T05:16:47.654Z,99.90
2019-05-22T05:19:18.518Z,99.90
2019-05-22T05:21:48.804Z,99.90
2019-05-22T05:24:19.140Z,99.90
2019-05-22T05:26:50.506Z,99.90
2019-05-22T05:29:28.730Z,99.90
2019-05-22T05:31:59.105Z,99.90
2019-05-22T05:34:40.700Z,99.90
2019-05-22T05:37:12.333Z,99.90
2019-05-22T05:40:26.325Z,99.90
2019-05-22T05:42:56.587Z,99.90
2019-05-22T05:45:28.307Z,99.90
2019-05-22T05:47:59.585Z,99.90
2019-05-22T05:50:39.741Z,99.90
2019-05-22T05:53:03.591Z,99.90
2019-05-22T05:56:19.662Z,99.90
2019-05-22T05:58:49.726Z,99.90
2019-05-22T06:01:25.891Z,99.90
2019-05-22T06:03:57.696Z,99.90
2019-05-22T06:07:14.601Z,99.90
2019-05-22T06:09:46.992Z,99.90
2019-05-22T06:12:16.818Z,99.90
2019-05-22T06:14:47.473Z,99.90
2019-05-22T06:17:54.719Z,99.90
2019-05-22T06:20:25.149Z,99.90
2019-05-22T06:23:52.534Z,99.90
2019-05-22T06:27:11.683Z,99.90
2019-05-22T06:30:07.219Z,99.90
2019-05-22T06:33:37.120Z,99.90
2019-05-22T06:36:14.462Z,99.90
2019-05-22T06:38:51.879Z,99.90
2019-05-22T06:41:29.271Z,99.90
2019-05-22T06:44:56.110Z,99.90
2019-05-22T06:47:27.966Z,99.90
2019-05-22T06:49:58.676Z,99.90
2019-05-22T06:52:29.059Z,99.90
2019-05-22T06:54:59.518Z,99.90
2019-05-22T06:57:36.565Z,99.90
2019-05-22T07:00:21.795Z,99.90
2019-05-22T07:02:51.755Z,99.90
2019-05-22T07:05:23.074Z,99.90
2019-05-22T07:07:53.531Z,99.90
2019-05-22T07:10:23.560Z,99.90
2019-05-22T07:12:54.487Z,99.90
2019-05-22T07:15:45.999Z,99.90
2019-05-22T07:18:19.962Z,99.90
2019-05-22T07:20:52.427Z,99.90
2019-05-22T07:23:28.452Z,99.90
2019-05-22T07:26:01.822Z,99.90
2019-05-22T07:28:32.254Z,99.90
2019-05-22T07:31:03.074Z,99.90
2019-05-22T07:33:33.811Z,99.90
2019-05-22T07:36:10.111Z,99.90
2019-05-22T07:38:36.500Z,99.90
2019-05-22T07:41:07.849Z,99.90
2019-05-22T07:43:41.333Z,99.90
2019-05-22T07:46:10.625Z,99.90
2019-05-22T07:48:41.558Z,99.90
2019-05-22T07:51:12.756Z,99.90
2019-05-22T07:53:43.186Z,99.90
2019-05-22T07:56:14.855Z,99.90
2019-05-22T07:58:45.839Z,99.90
2019-05-22T08:01:17.473Z,99.90
2019-05-22T08:03:48.950Z,99.90
2019-05-22T08:06:18.834Z,99.90
2019-05-22T08:08:50.628Z,99.90
2019-05-22T08:11:20.742Z,99.90
2019-05-22T08:13:51.194Z,99.90
2019-05-22T08:16:22.062Z,99.90
2019-05-22T08:18:53.591Z,99.90
2019-05-22T08:21:24.157Z,99.90
2019-05-22T08:23:55.932Z,99.90
2019-05-22T08:26:27.113Z,99.90
2019-05-22T08:28:56.974Z,99.90
2019-05-22T08:31:28.558Z,99.90
2019-05-22T08:33:58.479Z,99.90
2019-05-22T08:36:29.091Z,99.90
2019-05-22T08:39:01.032Z,99.90
2019-05-22T08:41:35.312Z,99.90
2019-05-22T08:44:17.117Z,99.90
2019-05-22T08:46:40.027Z,99.90
2019-05-22T08:49:10.882Z,99.90
2019-05-22T08:51:41.101Z,99.90
2019-05-22T08:54:11.659Z,99.90
2019-05-22T08:56:46.222Z,99.90
2019-05-22T08:59:19.722Z,99.90
2019-05-22T09:01:49.363Z,99.90
2019-05-22T09:04:19.071Z,99.90
2019-05-22T09:06:48.959Z,99.90
2019-05-22T09:09:18.707Z,99.90
2019-05-22T09:11:48.620Z,99.90
2019-05-22T09:14:18.705Z,99.90
2019-05-22T09:16:48.541Z,99.90
2019-05-22T09:19:18.592Z,99.90
2019-05-22T09:21:48.878Z,99.90
2019-05-22T09:24:19.738Z,99.90
2019-05-22T09:26:50.532Z,99.90
2019-05-22T09:29:20.703Z,99.90
2019-05-22T09:31:51.102Z,99.90
2019-05-22T09:34:21.749Z,99.90
2019-05-22T09:36:51.875Z,99.90
2019-05-22T09:39:22.302Z,99.90
2019-05-22T09:41:52.015Z,99.90
2019-05-22T09:44:22.543Z,99.90
2019-05-22T09:46:52.302Z,99.90
2019-05-22T09:49:24.057Z,99.90
2019-05-22T09:51:54.607Z,99.90
2019-05-22T09:54:25.299Z,99.90
2019-05-22T09:56:55.560Z,99.80
2019-05-22T09:59:26.606Z,99.80
2019-05-22T10:01:57.121Z,99.90
2019-05-22T10:04:27.925Z,99.90
2019-05-22T10:06:58.675Z,99.90
2019-05-22T10:09:29.260Z,99.90
2019-05-22T10:11:59.674Z,99.90
2019-05-22T10:14:30.139Z,99.90
2019-05-22T10:17:00.515Z,99.90
2019-05-22T10:19:31.183Z,99.90
2019-05-22T10:22:01.159Z,99.90
2019-05-22T10:24:31.527Z,99.90
2019-05-22T10:27:02.050Z,99.90
2019-05-22T10:29:32.482Z,99.90
2019-05-22T10:32:02.641Z,99.90
2019-05-22T10:34:32.837Z,99.90
2019-05-22T10:37:02.683Z,99.90
2019-05-22T10:39:32.954Z,99.90
2019-05-22T10:42:02.829Z,99.90
2019-05-22T10:44:32.983Z,99.90
2019-05-22T10:47:03.298Z,99.90
2019-05-22T10:49:33.327Z,99.90
2019-05-22T10:52:02.998Z,99.90
2019-05-22T10:54:32.838Z,99.90
2019-05-22T10:57:02.906Z,99.90
2019-05-22T10:59:32.983Z,99.90
2019-05-22T11:02:03.421Z,99.90
2019-05-22T11:04:33.333Z,99.90
2019-05-22T11:07:04.118Z,99.90
2019-05-22T11:09:34.873Z,99.90
2019-05-22T11:12:06.820Z,99.90
2019-05-22T11:14:36.589Z,99.90
2019-05-22T11:17:07.855Z,99.80
2019-05-22T11:19:38.070Z,99.90
2019-05-22T11:22:09.807Z,99.90
2019-05-22T11:24:40.134Z,99.90
2019-05-22T11:27:42.763Z,99.90
2019-05-22T11:30:14.227Z,99.90
2019-05-22T11:32:44.859Z,99.30
2019-05-22T11:35:17.307Z,99.90
2019-05-22T11:37:47.627Z,99.90
2019-05-22T11:40:18.234Z,99.90
2019-05-22T11:42:48.295Z,99.90
2019-05-22T11:45:19.243Z,99.90
2019-05-22T11:47:49.333Z,99.90
2019-05-22T11:50:19.593Z,99.90
2019-05-22T11:52:49.451Z,99.90
2019-05-22T11:55:20.616Z,99.90
2019-05-22T11:57:51.943Z,99.90
2019-05-22T12:00:23.132Z,99.90
2019-05-22T12:02:54.350Z,99.90
2019-05-22T12:05:25.602Z,99.90
2019-05-22T12:07:56.065Z,99.90
2019-05-22T12:10:26.381Z,99.90
2019-05-22T12:12:56.145Z,98.70
2019-05-22T12:15:29.823Z,99.90
2019-05-22T12:18:00.691Z,99.90
2019-05-22T12:20:31.811Z,99.20
2019-05-22T12:23:01.988Z,99.90
2019-05-22T12:25:31.750Z,98.20
2019-05-22T12:28:01.720Z,99.90
2019-05-22T12:30:32.378Z,99.50
2019-05-22T12:33:02.924Z,99.60
2019-05-22T12:35:33.289Z,97.00
2019-05-22T12:38:03.940Z,99.00
2019-05-22T12:40:36.340Z,98.30
2019-05-22T12:43:06.663Z,99.10
2019-05-22T12:45:36.339Z,97.50
2019-05-22T12:48:07.647Z,95.70
2019-05-22T12:50:38.026Z,97.10
2019-05-22T12:53:09.378Z,97.50
2019-05-22T12:55:39.631Z,97.50
2019-05-22T12:58:09.629Z,96.70
2019-05-22T13:00:39.288Z,97.90
2019-05-22T13:03:09.299Z,98.80
2019-05-22T13:05:40.120Z,98.50
2019-05-22T13:08:11.871Z,98.90
2019-05-22T13:10:41.626Z,97.70
2019-05-22T13:13:11.744Z,95.40
2019-05-22T13:15:42.731Z,97.30
2019-05-22T13:18:14.679Z,95.70
2019-05-22T13:20:47.896Z,96.60
2019-05-22T13:23:19.412Z,94.20
2019-05-22T13:25:49.670Z,94.90
2019-05-22T13:28:20.162Z,97.00
2019-05-22T13:30:53.890Z,96.30
2019-05-22T13:33:27.671Z,99.60
2019-05-22T13:35:58.462Z,98.90
2019-05-22T13:38:28.990Z,98.50
2019-05-22T13:40:59.000Z,97.70
2019-05-22T13:43:28.785Z,98.80
2019-05-22T13:45:58.442Z,97.90
2019-05-22T13:48:28.934Z,98.10
2019-05-22T13:51:00.283Z,98.30
2019-05-22T13:53:32.145Z,97.20
2019-05-22T13:56:02.839Z,93.60
2019-05-22T13:58:34.457Z,96.30
2019-05-22T14:01:05.071Z,96.00
2019-05-22T14:03:34.858Z,95.90
2019-05-22T14:06:05.822Z,93.80
2019-05-22T14:08:35.979Z,92.60
2019-05-22T14:11:06.970Z,97.50
2019-05-22T14:13:37.984Z,97.70
2019-05-22T14:16:08.855Z,97.80
2019-05-22T14:18:38.655Z,98.60
2019-05-22T14:21:08.799Z,95.00
2019-05-22T14:23:38.703Z,98.20
2019-05-22T14:26:09.106Z,96.90
2019-05-22T14:28:40.262Z,95.10
2019-05-22T14:31:10.400Z,94.70
2019-05-22T14:33:41.326Z,93.80
2019-05-22T14:36:11.647Z,96.30
2019-05-22T14:38:42.752Z,96.40
2019-05-22T14:41:13.407Z,98.20
2019-05-22T14:43:44.071Z,95.20
2019-05-22T14:46:13.861Z,95.70
2019-05-22T14:48:44.417Z,94.20
2019-05-22T14:51:15.124Z,96.30
2019-05-22T14:53:46.102Z,98.90
2019-05-22T14:56:17.110Z,97.20
2019-05-22T14:58:48.090Z,95.20
2019-05-22T15:01:18.758Z,97.70
2019-05-22T15:03:49.330Z,97.60
2019-05-22T15:06:21.113Z,97.80
2019-05-22T15:08:50.822Z,92.70
2019-05-22T15:11:22.160Z,98.40
2019-05-22T15:13:52.286Z,98.30
2019-05-22T15:16:22.908Z,97.30
2019-05-22T15:18:53.271Z,97.20
2019-05-22T15:21:23.962Z,98.10
2019-05-22T15:23:55.410Z,97.70
2019-05-22T15:26:26.032Z,97.00
2019-05-22T15:28:57.058Z,95.50
2019-05-22T15:31:28.501Z,94.90
2019-05-22T15:34:01.589Z,93.60
2019-05-22T15:36:32.866Z,95.30
2019-05-22T15:39:06.334Z,94.00
2019-05-22T15:41:37.822Z,93.70
2019-05-22T15:44:08.823Z,95.30
2019-05-22T15:46:40.191Z,97.50
2019-05-22T15:49:13.133Z,97.20
2019-05-22T15:51:45.282Z,94.50
2019-05-22T15:54:17.962Z,96.40
2019-05-22T15:56:48.622Z,95.60
2019-05-22T15:59:20.426Z,97.50
2019-05-22T16:01:50.958Z,98.90
2019-05-22T16:04:23.324Z,94.10
2019-05-22T16:06:55.534Z,96.00
2019-05-22T16:09:27.185Z,98.60
2019-05-22T16:11:58.751Z,96.70
2019-05-22T16:14:31.474Z,97.90
2019-05-22T16:17:06.246Z,95.10
2019-05-22T16:19:36.896Z,95.00
2019-05-22T16:22:09.606Z,94.70
2019-05-22T16:24:41.031Z,97.10
2019-05-22T16:27:14.344Z,94.30
2019-05-22T16:29:46.885Z,99.00
2019-05-22T16:32:19.285Z,95.60
2019-05-22T16:34:49.805Z,99.60
2019-05-22T16:37:20.806Z,97.90
2019-05-22T16:39:50.965Z,97.30
2019-05-22T16:42:22.750Z,97.50
2019-05-22T16:44:52.984Z,97.20
2019-05-22T16:47:24.512Z,97.10
2019-05-22T16:49:55.419Z,97.20
2019-05-22T16:52:28.411Z,96.00
2019-05-22T16:54:59.856Z,95.60
2019-05-22T16:57:31.651Z,98.50
2019-05-22T17:00:02.349Z,99.10
2019-05-22T17:02:34.917Z,96.40
2019-05-22T17:05:06.058Z,96.40
2019-05-22T17:07:36.714Z,94.60
2019-05-22T17:10:07.415Z,96.00
2019-05-22T17:12:39.351Z,94.70
2019-05-22T17:15:14.219Z,97.30
2019-05-22T17:17:44.602Z,96.80
2019-05-22T17:20:16.562Z,99.10
2019-05-22T17:22:47.020Z,97.50
2019-05-22T17:25:19.602Z,97.40
2019-05-22T17:27:50.641Z,95.80
2019-05-22T17:30:23.080Z,96.40
2019-05-22T17:32:53.950Z,95.10
2019-05-22T17:35:24.598Z,98.50
2019-05-22T17:37:55.710Z,97.00
2019-05-22T17:40:26.473Z,97.90
2019-05-22T17:42:57.337Z,95.80
2019-05-22T17:45:28.374Z,99.90
2019-05-22T17:47:58.511Z,96.50
2019-05-22T17:50:29.598Z,96.50
2019-05-22T17:53:00.082Z,99.90
2019-05-22T17:55:30.169Z,99.40
2019-05-22T17:58:00.539Z,99.90
2019-05-22T18:00:34.982Z,99.50
2019-05-22T18:03:05.398Z,97.40
2019-05-22T18:05:36.628Z,99.80
2019-05-22T18:08:07.255Z,99.00
2019-05-22T18:10:40.348Z,97.10
2019-05-22T18:13:12.568Z,98.70
2019-05-22T18:15:43.089Z,96.50
2019-05-22T18:18:13.151Z,94.80
2019-05-22T18:20:44.238Z,96.20
2019-05-22T18:23:14.330Z,99.60
2019-05-22T18:25:45.118Z,99.10
2019-05-22T18:29:29.351Z,98.80
2019-05-22T18:31:59.494Z,99.30
2019-05-22T18:34:29.746Z,97.80
2019-05-22T18:36:59.620Z,99.30
2019-05-22T18:39:30.875Z,99.00
2019-05-22T18:42:00.574Z,99.00
2019-05-22T18:44:30.742Z,98.80
2019-05-22T18:47:00.587Z,98.60
2019-05-22T18:49:30.459Z,98.70
2019-05-22T18:52:00.386Z,98.60
2019-05-22T18:54:30.663Z,98.50
2019-05-22T18:57:01.140Z,98.50
2019-05-22T18:59:31.374Z,96.30
2019-05-22T19:02:01.427Z,98.80
2019-05-22T19:04:32.148Z,98.50
2019-05-22T19:07:02.273Z,98.70
2019-05-22T19:09:32.526Z,98.80
2019-05-22T19:12:02.813Z,99.10
2019-05-22T19:14:33.666Z,98.70
2019-05-22T19:17:03.984Z,99.90
2019-05-22T19:19:33.878Z,99.90
2019-05-22T19:22:04.015Z,99.80
2019-05-22T19:24:34.326Z,99.70
2019-05-22T19:27:04.367Z,99.00
2019-05-22T19:29:34.822Z,99.40
2019-05-22T19:32:05.022Z,99.20
2019-05-22T19:34:35.125Z,99.00
2019-05-22T19:37:05.646Z,99.70
2019-05-22T19:39:37.538Z,99.70
2019-05-22T19:42:09.042Z,97.00
2019-05-22T19:44:40.286Z,99.90
2019-05-22T19:47:11.331Z,99.90
2019-05-22T19:49:43.909Z,98.00
2019-05-22T19:52:16.177Z,99.90
2019-05-22T19:54:47.004Z,99.60
2019-05-22T19:57:17.259Z,99.50
2019-05-22T19:59:48.329Z,99.40
2019-05-22T20:02:18.386Z,99.40
2019-05-22T20:04:48.471Z,99.60
2019-05-22T20:07:18.750Z,99.60
2019-05-22T20:09:49.814Z,99.70
2019-05-22T20:12:24.761Z,99.70
2019-05-22T20:14:52.957Z,99.70
2019-05-22T20:17:22.930Z,99.70
2019-05-22T20:19:53.026Z,99.80
2019-05-22T20:22:23.394Z,99.80
2019-05-22T20:24:53.381Z,99.80
2019-05-22T20:27:24.130Z,99.90
2019-05-22T20:29:53.910Z,99.90
2019-05-22T20:32:24.175Z,99.90
2019-05-22T20:34:54.057Z,99.90
2019-05-22T20:37:24.239Z,99.90
2019-05-22T20:39:54.404Z,99.90
2019-05-22T20:42:24.705Z,99.90
2019-05-22T20:44:54.552Z,99.90
2019-05-22T20:47:27.074Z,99.90
2019-05-22T20:49:57.545Z,99.90
2019-05-22T20:52:30.260Z,99.90
2019-05-22T20:55:00.581Z,99.90
2019-05-22T20:57:32.751Z,99.90
2019-05-22T21:00:03.437Z,99.90
2019-05-22T21:02:34.348Z,99.90
2019-05-22T21:05:06.783Z,99.90
2019-05-22T21:07:40.982Z,99.90
2019-05-22T21:10:11.284Z,99.90
2019-05-22T21:12:42.987Z,99.90
2019-05-22T21:15:14.245Z,99.90
2019-05-22T21:17:45.144Z,99.90
2019-05-22T21:20:17.542Z,99.90
2019-05-22T21:22:47.860Z,99.90
2019-05-22T21:25:17.522Z,99.90
2019-05-22T21:27:47.334Z,99.90
2019-05-22T21:30:19.202Z,99.90
2019-05-22T21:32:49.302Z,99.90
2019-05-22T21:35:21.438Z,99.90
2019-05-22T21:37:51.270Z,99.90
2019-05-22T21:40:24.213Z,99.90
2019-05-22T21:42:54.889Z,99.90
2019-05-22T21:45:25.646Z,99.90
2019-05-22T21:47:56.502Z,99.90
2019-05-22T21:50:26.610Z,99.90
2019-05-22T21:52:56.662Z,99.90
2019-05-22T21:55:27.806Z,99.90
2019-05-22T21:57:58.118Z,99.90
2019-05-22T22:01:10.511Z,99.90
2019-05-22T22:03:44.074Z,99.90
2019-05-22T22:06:14.709Z,99.90
2019-05-22T22:08:45.249Z,99.90
2019-05-22T22:11:15.314Z,99.90
2019-05-22T22:13:45.527Z,99.90
2019-05-22T22:16:15.425Z,99.90
2019-05-22T22:18:46.728Z,99.90
2019-05-22T22:21:17.482Z,99.90
2019-05-22T22:23:47.749Z,99.90
2019-05-22T22:26:25.442Z,99.90
2019-05-22T22:28:49.643Z,99.90
2019-05-22T22:31:21.906Z,99.90
2019-05-22T22:33:55.946Z,99.90
2019-05-22T22:36:26.128Z,99.90
2019-05-22T22:38:57.252Z,99.90
2019-05-22T22:41:27.102Z,99.90
2019-05-22T22:43:58.617Z,99.90
2019-05-22T22:46:55.830Z,99.90
2019-05-22T22:49:29.424Z,99.90
2019-05-22T22:52:01.213Z,99.90
2019-05-22T22:54:32.577Z,99.90
2019-05-22T22:57:03.001Z,99.90
2019-05-22T22:59:32.926Z,99.90
2019-05-22T23:02:04.578Z,99.90
2019-05-22T23:04:35.275Z,99.90
2019-05-22T23:07:07.950Z,99.90
2019-05-22T23:09:40.617Z,99.90
2019-05-22T23:12:12.010Z,99.90
2019-05-22T23:14:45.607Z,99.90
2019-05-22T23:17:15.370Z,99.90
2019-05-22T23:19:44.517Z,99.90
2019-05-22T23:22:31.326Z,99.90
2019-05-22T23:25:02.881Z,99.90
2019-05-22T23:27:35.798Z,99.90
2019-05-22T23:30:09.624Z,99.90
2019-05-22T23:32:41.662Z,99.90
2019-05-22T23:35:13.549Z,99.90
2019-05-22T23:37:43.878Z,99.90
2019-05-22T23:40:16.029Z,99.90
2019-05-22T23:42:46.736Z,99.90
2019-05-22T23:45:20.523Z,99.90
2019-05-22T23:48:03.902Z,99.90
2019-05-22T23:50:35.410Z,99.90
2019-05-22T23:53:06.062Z,99.90
2019-05-22T23:55:36.559Z,99.90
2019-05-22T23:58:08.801Z,99.90
